createdAt,value
2018-05-12T00:01:06.989Z,21.07
2018-05-12T00:03:35.872Z,23.50
2018-05-12T00:06:04.846Z,22.53
2018-05-12T00:08:33.711Z,22.30
2018-05-12T00:11:02.597Z,23.13
2018-05-12T00:13:31.585Z,22.83
2018-05-12T00:16:00.575Z,22.17
2018-05-12T00:18:29.449Z,22.60
2018-05-12T00:20:58.343Z,22.33
2018-05-12T00:23:27.232Z,21.60
2018-05-12T00:25:56.109Z,22.17
2018-05-12T00:28:25.013Z,20.53
2018-05-12T00:30:53.923Z,21.80
2018-05-12T00:33:22.785Z,22.90
2018-05-12T00:35:51.677Z,22.83
2018-05-12T00:38:20.581Z,21.03
2018-05-12T00:40:49.501Z,21.73
2018-05-12T00:43:18.365Z,21.70
2018-05-12T00:45:47.244Z,21.53
2018-05-12T00:48:16.127Z,21.63
2018-05-12T00:50:45.009Z,20.80
2018-05-12T00:53:13.938Z,21.80
2018-05-12T00:55:42.797Z,21.50
2018-05-12T00:58:11.653Z,21.87
2018-05-12T01:00:40.556Z,21.47
2018-05-12T01:03:09.440Z,21.07
2018-05-12T01:05:38.305Z,21.17
2018-05-12T01:08:07.205Z,20.60
2018-05-12T01:10:36.085Z,23.13
2018-05-12T01:13:04.976Z,19.70
2018-05-12T01:15:33.970Z,21.33
2018-05-12T01:18:02.857Z,20.13
2018-05-12T01:20:31.757Z,21.30
2018-05-12T01:23:00.632Z,20.20
2018-05-12T01:25:29.513Z,20.17
2018-05-12T01:27:58.393Z,21.43
2018-05-12T01:30:27.305Z,20.67
2018-05-12T01:32:56.188Z,20.97
2018-05-12T01:35:25.057Z,21.17
2018-05-12T01:37:54.030Z,20.90
2018-05-12T01:40:22.916Z,22.03
2018-05-12T01:42:51.982Z,20.50
2018-05-12T01:45:20.975Z,21.40
2018-05-12T01:47:49.887Z,21.03
2018-05-12T01:50:18.744Z,21.53
2018-05-12T01:52:47.620Z,21.30
2018-05-12T01:55:16.536Z,21.17
2018-05-12T01:57:45.405Z,20.10
2018-05-12T02:00:14.289Z,20.37
2018-05-12T02:02:43.172Z,20.70
2018-05-12T02:05:12.057Z,20.37
2018-05-12T02:07:40.913Z,20.30
2018-05-12T02:10:09.794Z,21.33
2018-05-12T02:12:38.677Z,20.43
2018-05-12T02:15:07.672Z,20.17
2018-05-12T02:17:36.572Z,21.17
2018-05-12T02:20:05.469Z,21.13
2018-05-12T02:22:34.349Z,20.47
2018-05-12T02:25:03.345Z,20.50
2018-05-12T02:27:32.231Z,20.33
2018-05-12T02:30:02.238Z,21.20
2018-05-12T02:32:31.121Z,19.90
2018-05-12T02:34:59.986Z,20.67
2018-05-12T02:37:28.865Z,20.60
2018-05-12T02:39:57.745Z,20.23
2018-05-12T02:42:26.629Z,20.37
2018-05-12T02:44:55.496Z,20.87
2018-05-12T02:47:24.383Z,22.37
2018-05-12T02:49:53.269Z,21.60
2018-05-12T02:52:22.171Z,20.90
2018-05-12T02:54:51.065Z,21.23
2018-05-12T02:57:19.955Z,20.63
2018-05-12T02:59:48.869Z,22.27
2018-05-12T03:02:17.753Z,21.67
2018-05-12T03:04:46.695Z,22.00
2018-05-12T03:07:15.526Z,22.37
2018-05-12T03:09:44.389Z,21.43
2018-05-12T03:12:13.281Z,21.57
2018-05-12T03:14:42.163Z,22.20
2018-05-12T03:17:11.012Z,22.07
2018-05-12T03:19:39.893Z,23.73
2018-05-12T03:22:08.793Z,22.70
2018-05-12T03:24:37.677Z,22.73
2018-05-12T03:27:06.662Z,23.07
2018-05-12T03:29:35.544Z,23.47
2018-05-12T03:32:04.433Z,23.37
2018-05-12T03:34:33.289Z,21.37
2018-05-12T03:37:02.164Z,23.43
2018-05-12T03:39:31.045Z,23.57
2018-05-12T03:41:59.897Z,22.13
2018-05-12T03:44:28.787Z,21.90
2018-05-12T03:46:57.676Z,22.13
2018-05-12T03:49:26.570Z,21.43
2018-05-12T03:51:55.473Z,23.03
2018-05-12T03:54:24.353Z,22.23
2018-05-12T03:56:53.208Z,22.40
2018-05-12T03:59:22.113Z,23.63
2018-05-12T04:01:51.013Z,22.63
2018-05-12T04:04:25.740Z,22.23
2018-05-12T04:07:00.690Z,22.07
2018-05-12T04:09:35.391Z,23.00
2018-05-12T04:12:09.988Z,22.30
2018-05-12T04:14:39.039Z,22.60
2018-05-12T04:17:07.925Z,22.33
2018-05-12T04:19:36.833Z,21.20
2018-05-12T04:22:05.743Z,21.60
2018-05-12T04:24:34.603Z,22.07
2018-05-12T04:27:03.453Z,22.07
2018-05-12T04:29:32.522Z,22.30
2018-05-12T04:32:01.622Z,22.30
2018-05-12T04:34:30.873Z,22.27
2018-05-12T04:36:59.776Z,22.67
2018-05-12T04:39:28.665Z,21.13
2018-05-12T04:41:57.523Z,21.93
2018-05-12T04:44:26.695Z,21.57
2018-05-12T04:46:55.558Z,22.63
2018-05-12T04:49:24.419Z,22.10
2018-05-12T04:51:53.331Z,22.07
2018-05-12T04:54:22.429Z,21.80
2018-05-12T04:56:51.284Z,22.83
2018-05-12T04:59:20.193Z,22.00
2018-05-12T05:01:49.061Z,21.57
2018-05-12T05:04:17.956Z,21.73
2018-05-12T05:06:46.857Z,21.03
2018-05-12T05:09:15.777Z,23.23
2018-05-12T05:11:44.664Z,25.43
2018-05-12T05:14:13.548Z,25.63
2018-05-12T05:16:42.409Z,23.73
2018-05-12T05:19:11.307Z,24.97
2018-05-12T05:21:40.186Z,25.53
2018-05-12T05:24:09.125Z,26.63
2018-05-12T05:26:38.029Z,26.97
2018-05-12T05:29:07.023Z,27.17
2018-05-12T05:31:35.890Z,27.83
2018-05-12T05:34:04.798Z,26.57
2018-05-12T05:36:33.673Z,30.67
2018-05-12T05:39:02.553Z,30.30
2018-05-12T05:41:31.782Z,29.57
2018-05-12T05:44:00.644Z,30.77
2018-05-12T05:46:29.497Z,33.07
2018-05-12T05:48:58.398Z,34.43
2018-05-12T05:51:27.341Z,43.67
2018-05-12T05:53:56.335Z,48.27
2018-05-12T05:56:25.208Z,43.10
2018-05-12T05:58:54.060Z,41.90
2018-05-12T06:01:22.917Z,35.63
2018-05-12T06:03:51.797Z,36.47
2018-05-12T06:06:20.649Z,37.70
2018-05-12T06:08:49.529Z,37.73
2018-05-12T06:11:18.440Z,36.23
2018-05-12T06:13:47.341Z,36.63
2018-05-12T06:16:16.226Z,37.50
2018-05-12T06:18:45.129Z,39.93
2018-05-12T06:21:13.997Z,36.23
2018-05-12T06:23:43.033Z,34.80
2018-05-12T06:26:12.026Z,34.53
2018-05-12T06:28:40.880Z,36.03
2018-05-12T06:31:09.761Z,35.13
2018-05-12T06:33:38.619Z,38.70
2018-05-12T06:36:07.490Z,34.97
2018-05-12T06:38:36.369Z,30.43
2018-05-12T06:41:05.232Z,30.17
2018-05-12T06:43:34.113Z,31.20
2018-05-12T06:46:03.000Z,28.23
2018-05-12T06:48:31.852Z,30.17
2018-05-12T06:51:00.739Z,28.17
